createdAt,value
2022-09-05T00:01:17.773Z,101216.13
2022-09-05T00:04:24.598Z,101214.44
2022-09-05T00:06:43.071Z,101217.30
2022-09-05T00:09:21.172Z,101218.94
2022-09-05T00:11:56.831Z,101212.81
2022-09-05T00:15:17.537Z,101205.23
2022-09-05T00:18:06.301Z,101209.19
2022-09-05T00:24:27.482Z,101209.19
2022-09-05T00:24:37.608Z,101203.86
2022-09-05T00:25:53.134Z,101199.82
2022-09-05T00:28:27.772Z,101204.59
2022-09-05T00:31:53.281Z,101198.86
2022-09-05T00:34:07.829Z,101206.75
2022-09-05T00:36:39.789Z,101193.05
2022-09-05T00:39:14.198Z,101201.70
2022-09-05T00:41:44.230Z,101201.70
2022-09-05T00:44:15.889Z,101192.54
2022-09-05T00:47:22.998Z,101196.55
2022-09-05T00:49:55.038Z,101204.72
2022-09-05T00:52:29.862Z,101204.72
2022-09-05T00:55:10.342Z,101212.75
2022-09-05T00:57:57.557Z,101212.75
2022-09-05T01:00:35.520Z,101206.64
2022-09-05T01:03:13.039Z,101204.90
2022-09-05T01:06:01.502Z,101211.16
2022-09-05T01:08:42.469Z,101207.41
2022-09-05T01:11:32.480Z,101198.60
2022-09-05T01:14:12.893Z,101203.62
2022-09-05T01:16:50.300Z,101204.01
2022-09-05T01:19:55.438Z,101204.01
2022-09-05T01:22:45.531Z,101214.02
2022-09-05T01:25:47.087Z,101208.29
2022-09-05T01:29:15.254Z,101208.29
2022-09-05T01:31:17.509Z,101202.11
2022-09-05T01:34:12.436Z,101197.62
2022-09-05T01:37:24.905Z,101197.62
2022-09-05T01:40:11.307Z,101199.13
2022-09-05T01:42:48.321Z,101207.08
2022-09-05T01:45:37.570Z,101203.88
2022-09-05T01:48:19.275Z,101200.12
2022-09-05T01:51:29.205Z,101203.39
2022-09-05T01:54:25.118Z,101200.16
2022-09-05T01:57:05.649Z,101201.28
2022-09-05T01:59:58.811Z,101194.45
2022-09-05T02:02:39.888Z,101207.55
2022-09-05T02:05:47.290Z,101200.05
2022-09-05T02:08:18.820Z,101202.10
2022-09-05T02:11:08.705Z,101194.93
2022-09-05T02:13:40.647Z,101194.93
2022-09-05T02:16:15.444Z,101199.22
2022-09-05T02:18:47.644Z,101194.16
2022-09-05T02:21:28.515Z,101197.88
2022-09-05T02:24:03.652Z,101197.88
2022-09-05T02:26:56.660Z,101198.34
2022-09-05T02:29:53.453Z,101189.27
2022-09-05T02:32:28.482Z,101187.46
2022-09-05T02:35:02.011Z,101187.46
2022-09-05T02:40:41.374Z,101188.69
2022-09-05T02:45:05.997Z,101188.69
2022-09-05T02:45:20.203Z,101180.98
2022-09-05T02:45:55.986Z,101188.80
2022-09-05T02:48:47.430Z,101196.48
2022-09-05T02:57:27.700Z,101194.53
2022-09-05T02:57:32.761Z,101195.14
2022-09-05T02:57:37.222Z,101195.14
2022-09-05T02:59:56.623Z,101196.42
2022-09-05T03:02:31.546Z,101208.46
2022-09-05T03:05:04.723Z,101208.46
2022-09-05T03:08:01.290Z,101214.27
2022-09-05T03:10:54.282Z,101209.31
2022-09-05T03:13:37.866Z,101209.31
2022-09-05T03:16:47.593Z,101213.52
2022-09-05T03:19:54.301Z,101213.52
2022-09-05T03:22:41.314Z,101218.22
2022-09-05T03:25:30.678Z,101235.79
2022-09-05T03:28:20.646Z,101232.63
2022-09-05T03:30:52.671Z,101227.91
2022-09-05T03:33:39.750Z,101227.91
2022-09-05T03:36:23.734Z,101231.70
2022-09-05T03:39:13.901Z,101235.73
2022-09-05T03:41:57.936Z,101228.52
2022-09-05T03:44:51.287Z,101236.81
2022-09-05T03:47:39.639Z,101243.67
2022-09-05T03:55:35.323Z,101243.67
2022-09-05T03:57:13.296Z,101238.98
2022-09-05T03:57:25.093Z,101241.80
2022-09-05T03:59:12.069Z,101241.80
2022-09-05T04:04:10.826Z,101243.45
2022-09-05T04:08:13.956Z,101242.78
2022-09-05T04:08:17.538Z,101242.78
2022-09-05T04:10:08.065Z,101247.56
2022-09-05T04:12:51.998Z,101242.18
2022-09-05T04:15:29.673Z,101240.16
2022-09-05T04:18:04.705Z,101238.58
2022-09-05T04:20:42.741Z,101238.58
2022-09-05T04:23:34.416Z,101241.59
2022-09-05T04:26:15.444Z,101242.06
2022-09-05T04:29:05.410Z,101256.03
2022-09-05T04:32:17.683Z,101252.23
2022-09-05T04:34:53.372Z,101252.23
2022-09-05T04:37:48.857Z,101246.17
2022-09-05T04:40:35.689Z,101252.05
2022-09-05T04:43:16.597Z,101238.31
2022-09-05T04:46:09.898Z,101245.66
2022-09-05T04:48:42.326Z,101252.66
2022-09-05T04:51:14.715Z,101238.73
2022-09-05T04:54:17.358Z,101238.73
2022-09-05T04:56:49.323Z,101246.91
2022-09-05T05:05:39.357Z,101243.43
2022-09-05T05:06:08.914Z,101242.91
2022-09-05T05:06:09.584Z,101242.91
2022-09-05T05:07:29.592Z,101239.20
2022-09-05T05:11:04.530Z,101245.33
2022-09-05T05:18:01.445Z,101237.89
2022-09-05T05:18:01.917Z,101242.09
2022-09-05T05:18:40.987Z,101237.89
2022-09-05T05:20:57.723Z,101237.78
2022-09-05T05:23:38.655Z,101231.27
2022-09-05T05:26:10.683Z,101245.77
2022-09-05T05:29:00.884Z,101234.72
2022-09-05T05:31:38.436Z,101248.09
2022-09-05T05:34:24.605Z,101242.27
2022-09-05T05:37:04.950Z,101242.27
2022-09-05T05:39:37.408Z,101245.53
2022-09-05T05:42:08.335Z,101246.09
2022-09-05T05:44:41.830Z,101232.91
2022-09-05T05:47:29.845Z,101232.91
2022-09-05T05:50:03.731Z,101236.16
2022-09-05T05:53:09.059Z,101238.62
2022-09-05T05:56:13.084Z,101246.44
2022-09-05T05:59:07.256Z,101246.44
2022-09-05T06:01:45.062Z,101247.47
2022-09-05T06:04:23.233Z,101245.67
2022-09-05T06:07:10.296Z,101250.18
2022-09-05T06:14:52.569Z,101255.91
2022-09-05T06:14:58.260Z,101255.91
2022-09-05T06:15:43.940Z,101255.66
2022-09-05T06:18:25.096Z,101267.97
2022-09-05T06:22:06.006Z,101267.97
2022-09-05T06:24:06.003Z,101265.38
2022-09-05T06:27:11.250Z,101254.98
2022-09-05T06:30:01.628Z,101256.64
2022-09-05T06:32:40.190Z,101256.64
2022-09-05T06:35:31.566Z,101267.62
2022-09-05T06:38:27.437Z,101267.62
2022-09-05T06:41:05.008Z,101267.41
2022-09-05T06:43:43.225Z,101270.06
2022-09-05T06:46:55.288Z,101272.17
2022-09-05T06:49:37.277Z,101269.86
2022-09-05T06:52:29.940Z,101270.25
2022-09-05T06:55:20.957Z,101267.11
2022-09-05T06:57:58.763Z,101267.11
2022-09-05T07:00:51.643Z,101262.77
2022-09-05T07:03:41.990Z,101263.66
2022-09-05T07:06:52.372Z,101263.66
2022-09-05T07:09:16.128Z,101264.59
2022-09-05T07:12:19.124Z,101262.16
2022-09-05T07:15:15.883Z,101258.58
2022-09-05T07:18:09.996Z,101258.58
2022-09-05T07:21:16.342Z,101258.81
2022-09-05T07:24:07.193Z,101252.81
2022-09-05T07:26:20.502Z,101247.47
2022-09-05T07:28:46.815Z,101247.47
2022-09-05T07:31:37.043Z,101246.56
2022-09-05T07:33:55.027Z,101242.30
2022-09-05T07:36:26.956Z,101241.17
2022-09-05T07:39:25.331Z,101250.65
2022-09-05T07:41:38.052Z,101250.65
2022-09-05T07:44:18.875Z,101253.49
2022-09-05T07:46:54.181Z,101253.49
2022-09-05T07:49:26.174Z,101247.66
2022-09-05T07:56:47.762Z,101243.05
2022-09-05T07:57:03.721Z,101242.35
2022-09-05T07:59:41.964Z,101235.27
2022-09-05T08:02:14.076Z,101235.70
2022-09-05T08:04:43.677Z,101219.84
2022-09-05T08:07:49.684Z,101219.84
2022-09-05T08:10:06.837Z,101217.53
2022-09-05T08:12:29.290Z,101216.20
2022-09-05T08:15:13.934Z,101218.19
2022-09-05T08:17:41.369Z,101218.19
2022-09-05T08:20:13.428Z,101201.89
2022-09-05T08:22:47.996Z,101206.03
2022-09-05T08:25:56.535Z,101206.03
2022-09-05T08:28:13.805Z,101192.06
2022-09-05T08:30:48.720Z,101198.75
2022-09-05T08:33:20.729Z,101198.75
2022-09-05T08:36:00.970Z,101198.60
2022-09-05T08:38:40.638Z,101198.60
2022-09-05T08:41:17.273Z,101193.84
2022-09-05T08:46:35.412Z,101184.41
2022-09-05T08:46:49.060Z,101185.47
2022-09-05T08:49:32.370Z,101184.66
2022-09-05T08:52:15.110Z,101184.66
2022-09-05T08:54:50.024Z,101181.52
2022-09-05T08:57:21.982Z,101178.09
2022-09-05T09:00:19.808Z,101165.02
2022-09-05T09:03:04.350Z,101165.02
2022-09-05T09:06:12.516Z,101162.09
2022-09-05T09:08:22.266Z,101165.41
2022-09-05T09:11:03.359Z,101160.17
2022-09-05T09:13:59.768Z,101160.17
2022-09-05T09:16:42.483Z,101154.34
2022-09-05T09:19:29.426Z,101146.16
2022-09-05T09:22:03.206Z,101145.41
2022-09-05T09:24:41.314Z,101135.83
2022-09-05T09:27:36.419Z,101135.83
2022-09-05T09:29:59.622Z,101131.87
2022-09-05T09:32:29.729Z,101131.87
2022-09-05T09:35:08.000Z,101132.35
2022-09-05T09:38:10.921Z,101129.05
2022-09-05T09:41:02.282Z,101132.23
2022-09-05T09:43:34.377Z,101132.23
2022-09-05T09:46:33.918Z,101127.99
2022-09-05T09:49:42.519Z,101129.73
2022-09-05T09:52:34.138Z,101121.04
2022-09-05T09:55:23.713Z,101124.33
2022-09-05T09:58:01.100Z,101121.93
2022-09-05T10:00:51.243Z,101121.93
2022-09-05T10:09:38.339Z,101113.99
2022-09-05T10:10:39.642Z,101109.39
2022-09-05T10:10:54.588Z,101116.53
2022-09-05T10:11:50.032Z,101105.69
2022-09-05T10:14:38.053Z,101108.66
2022-09-05T10:16:49.973Z,101105.80
2022-09-05T10:22:37.429Z,101098.70
2022-09-05T10:25:19.341Z,101098.70
2022-09-05T10:28:04.998Z,101103.42
2022-09-05T10:32:17.940Z,101093.36
2022-09-05T10:35:12.790Z,101093.36
2022-09-05T10:35:56.261Z,101103.13
2022-09-05T10:38:32.749Z,101098.37
2022-09-05T10:41:21.441Z,101102.58
2022-09-05T10:43:51.278Z,101091.59
2022-09-05T10:46:54.479Z,101089.94
2022-09-05T10:49:12.842Z,101090.87
2022-09-05T10:51:51.814Z,101090.87
2022-09-05T10:54:24.455Z,101085.69
2022-09-05T10:57:02.754Z,101086.81
2022-09-05T11:01:56.048Z,101092.66
2022-09-05T11:02:30.354Z,101079.28
2022-09-05T11:05:07.168Z,101079.28
2022-09-05T11:07:45.224Z,101072.13
2022-09-05T11:10:17.634Z,101070.30
2022-09-05T11:13:01.925Z,101063.73
2022-09-05T11:16:03.837Z,101056.28
2022-09-05T11:18:54.985Z,101056.28
2022-09-05T11:21:16.729Z,101059.91
2022-09-05T11:23:57.488Z,101057.77
2022-09-05T11:26:38.048Z,101054.58
2022-09-05T11:29:10.240Z,101045.46
2022-09-05T11:34:56.611Z,101045.46
2022-09-05T11:39:51.149Z,101043.05
2022-09-05T11:39:53.716Z,101041.31
2022-09-05T11:40:39.366Z,101036.05
2022-09-05T11:43:25.061Z,101036.47
2022-09-05T11:46:08.953Z,101028.89
2022-09-05T11:49:10.319Z,101022.81
2022-09-05T11:52:08.026Z,101022.81
2022-09-05T11:55:20.600Z,101011.83
2022-09-05T11:58:43.157Z,101011.83
2022-09-05T12:03:59.730Z,101003.57
2022-09-05T12:06:48.100Z,101003.24
2022-09-05T12:09:24.576Z,101011.77
2022-09-05T12:12:30.000Z,101011.77
2022-09-05T12:14:59.386Z,101000.84
2022-09-05T12:18:19.632Z,101008.62
2022-09-05T12:20:57.373Z,100992.39
2022-09-05T12:24:49.751Z,100992.39
2022-09-05T12:27:38.395Z,101001.16
2022-09-05T12:29:32.703Z,100987.98
2022-09-05T12:32:37.738Z,100996.27
2022-09-05T12:36:06.439Z,100975.46
2022-09-05T12:40:54.888Z,100984.00
2022-09-05T12:40:57.773Z,100984.00
2022-09-05T12:41:35.369Z,101014.92
2022-09-05T12:42:40.126Z,100976.27
2022-09-05T12:45:05.982Z,100984.34
2022-09-05T12:47:53.281Z,100984.34
2022-09-05T12:50:26.069Z,100976.61
2022-09-05T12:53:02.302Z,100971.05
2022-09-05T12:57:44.327Z,100961.09
2022-09-05T13:03:01.407Z,100963.23
2022-09-05T13:03:01.666Z,100961.09
2022-09-05T13:04:19.075Z,100961.56
2022-09-05T13:06:39.384Z,100954.44
2022-09-05T13:09:16.050Z,100954.44
2022-09-05T13:14:52.980Z,100949.84
2022-09-05T13:14:58.315Z,100953.31
2022-09-05T13:16:57.260Z,100932.84
2022-09-05T13:19:32.071Z,100942.20
2022-09-05T13:22:04.331Z,100956.14
2022-09-05T13:24:37.973Z,100949.03
2022-09-05T13:27:18.707Z,100949.03
2022-09-05T13:30:59.436Z,100958.02
2022-09-05T13:37:56.410Z,100949.48
2022-09-05T13:38:17.981Z,100951.61
2022-09-05T13:38:37.635Z,100938.92
2022-09-05T13:40:42.164Z,100943.45
2022-09-05T13:43:17.699Z,100947.55
2022-09-05T13:46:05.172Z,100949.08
2022-09-05T13:51:34.051Z,100950.95
2022-09-05T13:54:12.040Z,100950.95
2022-09-05T13:57:12.850Z,100941.80
2022-09-05T13:59:46.816Z,100944.38
2022-09-05T14:03:29.772Z,100942.42
2022-09-05T14:05:33.630Z,100941.33
2022-09-05T14:08:20.937Z,100945.08
2022-09-05T14:11:24.648Z,100942.61
2022-09-05T14:14:04.832Z,100935.53
2022-09-05T14:16:47.904Z,100937.57
2022-09-05T14:19:28.789Z,100933.06
2022-09-05T14:22:02.784Z,100937.05
2022-09-05T14:24:34.756Z,100937.91
2022-09-05T14:27:06.772Z,100921.84
2022-09-05T14:29:50.837Z,100937.19
2022-09-05T14:37:42.124Z,100936.34
2022-09-05T14:37:45.521Z,100937.19
2022-09-05T14:38:11.616Z,100936.55
2022-09-05T14:40:51.388Z,100929.63
2022-09-05T14:43:27.228Z,100926.93
2022-09-05T14:46:21.041Z,100925.39
2022-09-05T14:48:58.605Z,100932.42
2022-09-05T14:51:43.220Z,100932.53
2022-09-05T14:59:08.937Z,100929.13
2022-09-05T15:02:47.777Z,100927.98
2022-09-05T15:02:52.509Z,100932.36
2022-09-05T15:04:48.661Z,100932.30
2022-09-05T15:07:32.397Z,100929.67
2022-09-05T15:11:56.350Z,100929.44
2022-09-05T15:13:08.533Z,100933.84
2022-09-05T15:15:40.436Z,100931.44
2022-09-05T15:18:21.323Z,100931.44
2022-09-05T15:20:53.119Z,100928.16
2022-09-05T15:23:26.134Z,100928.16
2022-09-05T15:26:26.614Z,100926.02
2022-09-05T15:29:12.900Z,100926.02
2022-09-05T15:31:26.350Z,100916.81
2022-09-05T15:33:56.953Z,100916.81
2022-09-05T15:36:34.982Z,100917.34
2022-09-05T15:39:22.197Z,100926.33
2022-09-05T15:41:52.990Z,100926.33
2022-09-05T15:44:27.716Z,100927.14
2022-09-05T15:47:03.701Z,100922.53
2022-09-05T15:49:44.613Z,100915.97
2022-09-05T15:52:27.310Z,100926.80
2022-09-05T15:55:07.402Z,100917.84
2022-09-05T15:57:42.462Z,100918.60
2022-09-05T16:00:14.612Z,100918.56
2022-09-05T16:02:55.452Z,100928.57
2022-09-05T16:10:29.255Z,100925.20
2022-09-05T16:10:37.635Z,100925.20
2022-09-05T16:10:59.073Z,100914.28
2022-09-05T16:13:17.803Z,100914.28
2022-09-05T16:22:26.650Z,100916.70
2022-09-05T16:23:13.668Z,100911.41
2022-09-05T16:23:24.444Z,100916.45
2022-09-05T16:23:41.470Z,100916.45
2022-09-05T16:26:12.842Z,100927.84
2022-09-05T16:28:47.012Z,100928.28
2022-09-05T16:31:43.175Z,100928.28
2022-09-05T16:34:15.168Z,100930.42
2022-09-05T16:37:07.978Z,100926.55
2022-09-05T16:39:27.038Z,100943.55
2022-09-05T16:42:01.869Z,100943.55
2022-09-05T16:44:36.964Z,100963.83
2022-09-05T16:47:25.409Z,100982.13
2022-09-05T16:50:24.911Z,100982.13
2022-09-05T16:53:05.422Z,100989.00
2022-09-05T16:55:40.783Z,100984.94
2022-09-05T16:58:21.706Z,100995.27
2022-09-05T17:00:56.459Z,100989.27
2022-09-05T17:03:46.627Z,100992.25
2022-09-05T17:06:25.808Z,100975.91
2022-09-05T17:09:10.413Z,100986.79
2022-09-05T17:11:29.788Z,100986.79
2022-09-05T17:14:01.760Z,100991.30
2022-09-05T17:16:49.534Z,100991.30
2022-09-05T17:19:22.403Z,100994.81
2022-09-05T17:24:09.686Z,100988.77
2022-09-05T17:29:15.848Z,100988.77
2022-09-05T17:29:37.961Z,100993.06
2022-09-05T17:32:52.460Z,100987.48
2022-09-05T17:35:24.506Z,100991.12
2022-09-05T17:38:13.157Z,100983.56
2022-09-05T17:40:58.555Z,100990.03
2022-09-05T17:43:37.454Z,100990.03
2022-09-05T17:46:24.475Z,100991.08
2022-09-05T17:49:18.290Z,100997.30
2022-09-05T17:51:34.348Z,101003.98
2022-09-05T17:54:07.942Z,101010.30
2022-09-05T17:56:47.794Z,101010.30
2022-09-05T17:59:23.538Z,101008.59
2022-09-05T18:02:08.053Z,101007.38
2022-09-05T18:04:56.089Z,101006.43
2022-09-05T18:07:31.072Z,101006.43
2022-09-05T18:10:12.484Z,101011.02
2022-09-05T18:13:12.889Z,101005.05
2022-09-05T18:15:16.486Z,101012.69
2022-09-05T18:17:48.451Z,101039.78
2022-09-05T18:20:35.792Z,101011.94
2022-09-05T18:23:37.566Z,101013.22
2022-09-05T18:26:00.202Z,101013.22
2022-09-05T18:28:38.157Z,101011.93
2022-09-05T18:31:41.898Z,101016.20
2022-09-05T18:34:20.416Z,101019.67
2022-09-05T18:36:52.884Z,101005.84
2022-09-05T18:39:36.860Z,101005.84
2022-09-05T18:42:33.021Z,101013.56
2022-09-05T18:44:59.755Z,101013.56
2022-09-05T18:47:50.983Z,101014.03
2022-09-05T18:50:25.476Z,101014.05
2022-09-05T18:52:49.599Z,101023.20
2022-09-05T18:56:10.652Z,101023.20
2022-09-05T18:58:02.778Z,101019.33
2022-09-05T19:00:45.050Z,101014.38
2022-09-05T19:03:25.455Z,101019.69
2022-09-05T19:06:35.942Z,101027.50
2022-09-05T19:08:37.319Z,101024.81
2022-09-05T19:11:27.896Z,101022.32
2022-09-05T19:13:46.675Z,101026.02
2022-09-05T19:16:47.481Z,101023.87
2022-09-05T19:19:07.209Z,101029.36
2022-09-05T19:21:43.531Z,101029.36
2022-09-05T19:24:15.271Z,101021.79
2022-09-05T19:26:49.756Z,101027.95
2022-09-05T19:36:52.471Z,101027.95
2022-09-05T19:36:52.704Z,101024.44
2022-09-05T19:36:55.587Z,101029.06
2022-09-05T19:47:26.709Z,101020.64
2022-09-05T19:47:36.394Z,101018.28
2022-09-05T19:47:37.951Z,101020.64
2022-09-05T19:50:11.591Z,101022.62
2022-09-05T19:52:41.152Z,101022.62
2022-09-05T19:55:22.493Z,101027.59
2022-09-05T19:58:18.642Z,101031.00
2022-09-05T20:00:26.296Z,101033.36
2022-09-05T20:02:57.360Z,101042.59
2022-09-05T20:05:26.993Z,101032.02
2022-09-05T20:07:59.455Z,101032.02
2022-09-05T20:10:33.765Z,101033.92
2022-09-05T20:13:04.472Z,101029.22
2022-09-05T20:15:38.162Z,101025.95
2022-09-05T20:18:22.273Z,101018.77
2022-09-05T20:20:57.369Z,101012.76
2022-09-05T20:23:29.051Z,101015.80
2022-09-05T20:25:58.828Z,101004.66
2022-09-05T20:28:31.260Z,101010.50
2022-09-05T20:31:04.293Z,101010.50
2022-09-05T20:33:51.729Z,101002.14
2022-09-05T20:43:11.730Z,101002.14
2022-09-05T20:43:24.419Z,100990.44
2022-09-05T20:43:29.815Z,100992.03
2022-09-05T20:44:22.752Z,100992.03
2022-09-05T20:48:52.029Z,100982.97
2022-09-05T20:54:10.490Z,100989.43
2022-09-05T20:54:14.521Z,100989.96
2022-09-05T20:54:56.192Z,100989.96
2022-09-05T20:57:34.730Z,100986.73
2022-09-05T21:00:15.382Z,100979.00
2022-09-05T21:02:56.210Z,100983.34
2022-09-05T21:05:31.099Z,100973.33
2022-09-05T21:08:23.357Z,100979.70
2022-09-05T21:10:57.824Z,100975.65
2022-09-05T21:13:52.300Z,100975.80
2022-09-05T21:16:18.731Z,100975.80
2022-09-05T21:18:48.319Z,100964.56
2022-09-05T21:21:28.558Z,100973.92
2022-09-05T21:24:17.451Z,100970.17
2022-09-05T21:26:43.074Z,100970.17
2022-09-05T21:29:17.829Z,100977.39
2022-09-05T21:31:54.443Z,100977.39
2022-09-05T21:34:45.239Z,100974.12
2022-09-05T21:37:15.408Z,100965.17
2022-09-05T21:39:59.499Z,100969.17
2022-09-05T21:44:52.783Z,100969.17
2022-09-05T21:47:39.616Z,100974.86
2022-09-05T21:47:41.738Z,100970.23
2022-09-05T21:49:57.269Z,100970.70
2022-09-05T21:52:28.291Z,100975.48
2022-09-05T21:59:16.978Z,100968.83
2022-09-05T21:59:28.484Z,100972.16
2022-09-05T22:00:10.815Z,100972.16
2022-09-05T22:02:38.270Z,100976.62
2022-09-05T22:05:08.081Z,100979.82
2022-09-05T22:07:37.621Z,100974.39
2022-09-05T22:10:09.118Z,100979.63
2022-09-05T22:12:39.394Z,100979.63
2022-09-05T22:15:27.586Z,100974.84
2022-09-05T22:17:46.988Z,100962.89
2022-09-05T22:20:20.551Z,100962.89
2022-09-05T22:22:56.485Z,100967.38
2022-09-05T22:25:28.006Z,100967.11
2022-09-05T22:28:00.079Z,100970.73
2022-09-05T22:30:29.169Z,100972.20
2022-09-05T22:32:58.391Z,100965.70
2022-09-05T22:35:28.978Z,100965.70
2022-09-05T22:38:07.030Z,100962.58
2022-09-05T22:40:34.465Z,100966.09
2022-09-05T22:43:06.010Z,100970.11
2022-09-05T22:45:36.593Z,100970.11
2022-09-05T22:48:11.172Z,100966.41
2022-09-05T22:50:41.371Z,100966.41
2022-09-05T22:53:11.493Z,100961.50
2022-09-05T22:55:42.872Z,100954.64
2022-09-05T22:58:14.723Z,100957.99
2022-09-05T23:00:45.004Z,100963.52
2022-09-05T23:03:14.039Z,100963.52
2022-09-05T23:05:43.230Z,100962.61
2022-09-05T23:08:12.636Z,100965.30
2022-09-05T23:10:41.764Z,100960.05
2022-09-05T23:13:11.980Z,100964.11
2022-09-05T23:15:41.078Z,100962.34
2022-09-05T23:18:10.312Z,100957.47
2022-09-05T23:20:39.581Z,100961.36
2022-09-05T23:23:09.563Z,100968.25
2022-09-05T23:25:39.473Z,100973.84
2022-09-05T23:28:10.328Z,100956.43
2022-09-05T23:30:40.379Z,100956.43
2022-09-05T23:33:11.117Z,100957.86
2022-09-05T23:35:40.260Z,100962.27
2022-09-05T23:38:13.858Z,100965.72
2022-09-05T23:40:43.063Z,100966.00
2022-09-05T23:43:12.128Z,100959.86
2022-09-05T23:45:41.243Z,100959.86
2022-09-05T23:48:10.343Z,100958.62
2022-09-05T23:50:39.542Z,100958.62
2022-09-05T23:53:08.641Z,100950.46
2022-09-05T23:55:37.731Z,100952.27
2022-09-05T23:58:06.820Z,100952.27
